Time;durP1;ratioP1;P1;durP2;ratioP2;P2;SDS_P1;SDS_P2;PMS_P1;PMS_P2;Temp;Humidity;BMP_temperature;BMP_pressure;BME280_temperature;BME280_humidity;BME280_pressure;Samples;Min_cycle;Max_cycle;Signal;HPM_P1;HPM_P2
2023/11/28 11:30:12;;;;;;;28.80;10.10;;;;;;;-0.85;94.00;98279.34;107007;1285;542790;-85
2023/11/28 11:32:42;;;;;;;30.30;11.00;;;;;;;-0.85;94.14;98281.76;107815;1284;25487;-85
2023/11/28 11:35:33;;;;;;;23.90;9.50;;;;;;;-0.87;93.83;98281.14;107835;1281;24244;-84
2023/11/28 11:38:30;;;;;;;26.60;10.60;;;;;;;-0.93;93.77;98287.23;108001;1278;22621;-85
2023/11/28 11:41:00;;;;;;;26.30;9.20;;;;;;;-0.93;94.16;98284.79;107948;1276;24470;-86
2023/11/28 11:43:53;;;;;;;29.40;11.80;;;;;;;-0.90;94.27;98288.55;108027;1272;237700;-85
2023/11/28 11:46:43;;;;;;;27.60;10.20;;;;;;;-0.90;94.27;98286.13;110296;1280;22191;-86
2023/11/28 11:49:34;;;;;;;22.10;7.80;;;;;;;-0.95;93.93;98289.34;110665;1274;22271;-86
2023/11/28 11:52:06;;;;;;;24.60;9.30;;;;;;;-1.01;94.03;98294.33;110667;1275;22952;-86
2023/11/28 11:54:36;;;;;;;25.90;9.50;;;;;;;-1.08;94.04;98289.59;110928;1272;22113;-86
2023/11/28 11:57:06;;;;;;;28.30;11.00;;;;;;;-1.06;94.71;98288.28;110981;1264;23076;-86
2023/11/28 11:59:57;;;;;;;29.80;9.70;;;;;;;-1.05;94.73;98287.92;111017;1264;22162;-86
2023/11/28 12:02:43;;;;;;;29.70;9.30;;;;;;;-1.06;94.52;98289.08;111020;1264;22153;-85
2023/11/28 12:05:13;;;;;;;;;;;;;;;-1.04;94.94;98290.48;111060;1267;22474;-86
2023/11/28 12:07:43;;;;;;;30.00;9.60;;;;;;;-1.01;95.17;98292.77;111025;1264;22113;-85
2023/11/28 12:10:16;;;;;;;27.00;9.10;;;;;;;-1.02;94.79;98298.44;111032;1271;22253;-85
2023/11/28 12:12:47;;;;;;;28.60;11.70;;;;;;;-1.02;94.92;98298.48;111073;1271;22146;-86
2023/11/28 12:15:20;;;;;;;28.80;10.80;;;;;;;-0.98;95.11;98302.44;111070;1264;22151;-85
2023/11/28 12:17:51;;;;;;;28.40;9.90;;;;;;;-0.95;95.11;98302.89;111097;1256;22190;-86
2023/11/28 12:20:21;;;;;;;21.10;6.60;;;;;;;-0.91;95.22;98302.33;111048;1262;22127;-85
2023/11/28 12:22:53;;;;;;;25.50;9.00;;;;;;;-0.90;94.81;98309.11;111098;1262;22301;-85
2023/11/28 12:25:26;;;;;;;32.70;11.10;;;;;;;-0.90;95.04;98313.35;111100;1263;22146;-85
2023/11/28 12:28:00;;;;;;;28.40;9.90;;;;;;;-0.89;95.05;98315.90;111069;1270;23048;-86
2023/11/28 12:30:31;;;;;;;28.60;11.00;;;;;;;-0.87;95.24;98317.37;111091;1264;22198;-85
2023/11/28 12:33:01;;;;;;;29.90;11.20;;;;;;;-0.82;95.19;98320.80;111062;1266;22203;-85
2023/11/28 12:35:45;;;;;;;32.10;11.00;;;;;;;-0.85;94.72;98326.83;111068;1265;22177;-86
2023/11/28 12:38:15;;;;;;;34.30;11.40;;;;;;;-0.86;94.74;98331.98;111003;1264;22360;-85
2023/11/28 12:40:46;;;;;;;32.00;11.10;;;;;;;-0.83;95.10;98339.29;111060;1267;22331;-86
2023/11/28 12:43:23;;;;;;;32.90;11.80;;;;;;;-0.81;95.09;98338.95;111065;1263;22282;-85
2023/11/28 12:45:58;;;;;;;31.50;11.80;;;;;;;-0.80;94.78;98345.45;111110;1271;22136;-85
2023/11/28 12:48:28;;;;;;;30.40;10.70;;;;;;;-0.83;94.51;98350.45;111023;1264;22098;-85
2023/11/28 12:51:03;;;;;;;26.70;9.40;;;;;;;-0.85;94.91;98352.64;111040;1271;22242;-85
2023/11/28 12:53:35;;;;;;;31.70;10.20;;;;;;;-0.84;94.77;98356.85;111028;1270;22114;-85
2023/11/28 12:56:07;;;;;;;32.00;10.20;;;;;;;-0.88;94.46;98361.61;111046;1267;22472;-85
2023/11/28 12:58:36;;;;;;;35.50;12.60;;;;;;;-0.89;94.55;98362.61;111092;1265;23028;-85
2023/11/28 13:01:07;;;;;;;31.00;10.90;;;;;;;-0.89;94.79;98364.30;111066;1263;22121;-85
2023/11/28 13:03:39;;;;;;;;;;;;;;;-0.91;94.51;98368.93;111038;1271;22331;-84
2023/11/28 13:06:11;;;;;;;33.50;10.40;;;;;;;-0.95;94.27;98372.84;111044;1271;22809;-85
2023/11/28 13:08:41;;;;;;;33.90;11.80;;;;;;;-0.97;94.24;98368.61;111050;1264;22154;-85
2023/11/28 13:11:20;;;;;;;33.00;12.10;;;;;;;-1.00;94.31;98374.34;111086;1270;22158;-84
2023/11/28 13:13:50;;;;;;;33.40;12.70;;;;;;;-1.00;94.54;98375.13;111085;1264;22159;-85
2023/11/28 13:16:21;;;;;;;32.90;11.10;;;;;;;-0.99;94.59;98377.05;111041;1263;22936;-85
2023/11/28 13:18:50;;;;;;;31.50;12.00;;;;;;;-1.00;94.24;98382.66;111085;1271;22361;-85
2023/11/28 13:21:21;;;;;;;32.20;11.60;;;;;;;-0.99;94.43;98387.70;111014;1262;22242;-85
2023/11/28 13:23:54;;;;;;;30.90;12.90;;;;;;;-0.99;93.95;98393.42;111040;1264;22823;-85
2023/11/28 13:26:25;;;;;;;31.90;10.90;;;;;;;-1.01;94.04;98396.37;111029;1271;22317;-85
2023/11/28 13:28:58;;;;;;;35.30;11.90;;;;;;;-1.02;93.65;98395.23;111031;1271;22174;-85
2023/11/28 13:31:28;;;;;;;37.00;11.40;;;;;;;-1.03;93.39;98401.31;110988;1263;22243;-84
2023/11/28 13:34:00;;;;;;;28.00;9.60;;;;;;;-1.01;93.74;98397.09;111083;1271;22959;-85
2023/11/28 13:36:30;;;;;;;35.40;10.40;;;;;;;-1.00;93.62;98403.01;111087;1271;22121;-85
2023/11/28 13:39:02;;;;;;;33.10;11.00;;;;;;;-0.98;93.68;98407.92;111055;1263;22810;-85
2023/11/28 13:41:31;;;;;;;30.60;11.00;;;;;;;-0.98;93.12;98412.08;111098;1271;22152;-85
2023/11/28 13:44:02;;;;;;;29.90;11.60;;;;;;;-0.98;93.29;98414.95;111065;1267;22149;-84
2023/11/28 13:46:32;;;;;;;34.40;11.80;;;;;;;-0.96;93.17;98422.02;111067;1263;22116;-84
2023/11/28 13:49:03;;;;;;;36.70;12.90;;;;;;;-0.96;92.82;98427.02;111113;1270;22286;-84
2023/11/28 13:51:34;;;;;;;29.90;10.80;;;;;;;-0.94;93.25;98435.64;111068;1271;22166;-84
2023/11/28 13:54:02;;;;;;;;;;;;;;;-0.92;93.21;98439.97;111084;1267;23239;-84
2023/11/28 13:56:34;;;;;;;30.30;10.90;;;;;;;-0.94;92.90;98442.94;111068;1265;22153;-84
2023/11/28 13:59:05;;;;;;;31.00;11.10;;;;;;;-0.96;93.06;98451.83;111054;1265;22187;-84
2023/11/28 14:01:35;;;;;;;25.20;8.20;;;;;;;-0.95;93.15;98452.73;111066;1263;22237;-85
2023/11/28 14:04:05;;;;;;;27.50;9.80;;;;;;;-1.00;92.66;98460.83;111082;1271;22077;-85
2023/11/28 14:06:35;;;;;;;31.10;10.00;;;;;;;-1.04;93.01;98459.30;111070;1271;22270;-84
2023/11/28 14:09:05;;;;;;;31.20;10.40;;;;;;;-1.04;93.18;98460.98;111074;1266;22169;-85
2023/11/28 14:11:34;;;;;;;32.00;10.70;;;;;;;-1.03;93.25;98466.98;111087;1267;22610;-85
2023/11/28 14:14:07;;;;;;;31.70;10.40;;;;;;;-1.09;92.82;98469.27;111085;1265;22265;-85
2023/11/28 14:16:37;;;;;;;34.40;11.70;;;;;;;-1.11;93.32;98472.86;111064;1267;23355;-84
2023/11/28 14:19:06;;;;;;;32.70;12.30;;;;;;;-1.11;93.30;98477.48;111011;1263;22147;-84
2023/11/28 14:21:37;;;;;;;30.00;11.00;;;;;;;-1.13;93.34;98485.94;111109;1271;22220;-84
2023/11/28 14:24:08;;;;;;;31.10;9.50;;;;;;;-1.16;93.62;98485.30;111080;1263;22229;-84
2023/11/28 14:26:37;;;;;;;32.90;12.90;;;;;;;-1.11;94.01;98487.65;111095;1267;22105;-84
2023/11/28 14:29:09;;;;;;;29.20;10.00;;;;;;;-1.08;93.85;98491.48;111103;1263;22513;-84
2023/11/28 14:31:40;;;;;;;29.10;11.10;;;;;;;-1.10;93.77;98495.98;111070;1262;22311;-84
2023/11/28 14:34:09;;;;;;;34.70;11.40;;;;;;;-1.09;93.80;98500.27;111059;1263;22136;-85
2023/11/28 14:36:39;;;;;;;32.10;10.00;;;;;;;-1.09;93.82;98502.62;111056;1266;22813;-84
2023/11/28 14:39:11;;;;;;;33.00;12.10;;;;;;;-1.12;93.57;98505.27;111076;1266;22947;-85
2023/11/28 14:41:41;;;;;;;30.80;11.10;;;;;;;-1.14;93.42;98509.52;111091;1267;23114;-85
2023/11/28 14:44:20;;;;;;;32.60;12.70;;;;;;;-1.16;93.50;98515.42;111064;1271;22341;-84
2023/11/28 14:46:52;;;;;;;35.60;11.60;;;;;;;-1.19;93.51;98515.85;111075;1267;22641;-84
2023/11/28 14:49:22;;;;;;;31.60;11.60;;;;;;;-1.21;93.68;98523.42;111072;1263;22326;-84
2023/11/28 14:51:53;;;;;;;38.80;12.90;;;;;;;-1.23;93.78;98521.31;111086;1270;22092;-84
2023/11/28 14:54:23;;;;;;;38.40;14.70;;;;;;;-1.26;93.86;98520.02;111092;1266;22141;-84
2023/11/28 14:56:53;;;;;;;36.70;13.70;;;;;;;-1.30;93.96;98518.09;111093;1264;22981;-84
2023/11/28 14:59:44;;;;;;;40.90;14.80;;;;;;;-1.31;94.37;98529.39;111055;1267;23107;-84
2023/11/28 15:02:16;;;;;;;39.30;16.10;;;;;;;-1.33;94.32;98534.14;111085;1264;22157;-84
2023/11/28 15:05:07;;;;;;;33.40;14.10;;;;;;;-1.34;94.42;98539.27;111036;1271;22653;-88
2023/11/28 15:07:55;;;;;;;;;;;;;;;-1.37;94.41;98537.87;111089;1266;23204;-89
2023/11/28 15:10:25;;;;;;;40.70;14.50;;;;;;;-1.37;94.77;98541.85;111079;1263;22176;-88
2023/11/28 15:13:16;;;;;;;39.60;16.00;;;;;;;-1.40;94.42;98546.98;111096;1270;22634;-88
2023/11/28 15:15:47;;;;;;;42.00;16.00;;;;;;;-1.42;94.77;98555.34;111086;1271;22162;-88
2023/11/28 15:18:17;;;;;;;39.70;16.30;;;;;;;-1.45;94.74;98557.92;110999;1266;22229;-88
2023/11/28 15:20:47;;;;;;;43.90;17.30;;;;;;;-1.47;94.84;98561.84;111057;1268;22220;-88
2023/11/28 15:23:17;;;;;;;49.80;18.70;;;;;;;-1.47;94.78;98566.73;111092;1263;22666;-89
2023/11/28 15:25:48;;;;;;;39.80;15.80;;;;;;;-1.43;95.05;98570.61;110978;1265;22185;-89
2023/11/28 15:28:20;;;;;;;45.40;18.70;;;;;;;-1.44;94.59;98575.87;111078;1270;22140;-88
2023/11/28 15:31:12;;;;;;;51.80;18.10;;;;;;;-1.45;94.53;98578.89;111071;1271;22908;-88
2023/11/28 15:34:03;;;;;;;45.40;17.10;;;;;;;-1.45;94.55;98584.73;111062;1271;22145;-89
2023/11/28 15:36:34;;;;;;;50.10;17.40;;;;;;;-1.42;94.67;98591.70;111100;1266;22128;-89
2023/11/28 15:39:23;;;;;;;47.80;19.10;;;;;;;-1.39;94.54;98597.78;111090;1264;22193;-89
2023/11/28 15:42:14;;;;;;;46.60;20.60;;;;;;;-1.35;94.46;98598.44;105352;1304;543373;-88
2023/11/28 15:45:04;;;;;;;53.40;19.80;;;;;;;-1.36;94.22;98602.20;110258;1277;22197;-89
2023/11/28 15:47:55;;;;;;;47.80;18.80;;;;;;;-1.36;94.01;98604.63;110925;1268;22893;-88
2023/11/28 15:50:26;;;;;;;52.70;19.90;;;;;;;-1.40;93.88;98606.16;110905;1268;22159;-89
2023/11/28 15:53:16;;;;;;;53.20;19.90;;;;;;;-1.42;93.86;98608.41;111115;1268;23212;-86
2023/11/28 15:56:08;;;;;;;45.80;17.60;;;;;;;-1.44;93.75;98616.53;111067;1263;218980;-89
2023/11/28 15:58:38;;;;;;;52.20;20.10;;;;;;;-1.48;93.63;98622.98;111245;1262;23005;-86
2023/11/28 16:01:10;;;;;;;56.10;22.00;;;;;;;-1.49;93.66;98628.11;111200;1269;22237;-87
2023/11/28 16:03:41;;;;;;;54.50;21.90;;;;;;;-1.49;93.49;98627.73;110958;1270;22480;-87
2023/11/28 16:06:15;;;;;;;52.40;20.10;;;;;;;-1.50;93.44;98631.56;111247;1267;22143;-87
2023/11/28 16:09:07;;;;;;;50.90;22.10;;;;;;;-1.49;93.31;98641.23;111449;1268;22124;-89
2023/11/28 16:11:42;;;;;;;58.30;22.90;;;;;;;-1.47;93.50;98644.40;111462;1267;22165;-89
2023/11/28 16:14:33;;;;;;;54.70;19.60;;;;;;;-1.45;93.44;98646.77;111442;1260;22329;-89
2023/11/28 16:17:45;;;;;;;59.20;21.50;;;;;;;-1.44;93.35;98654.38;111425;1265;22075;-87
2023/11/28 16:20:17;;;;;;;47.60;18.40;;;;;;;-1.47;92.92;98661.60;111457;1265;22235;-88
2023/11/28 16:23:07;;;;;;;51.20;20.40;;;;;;;-1.53;92.59;98664.91;111439;1265;22164;-89
2023/11/28 16:25:57;;;;;;;50.30;19.30;;;;;;;-1.58;92.99;98668.57;111479;1267;22157;-90
2023/11/28 16:28:27;;;;;;;51.40;19.00;;;;;;;-1.62;93.00;98673.36;111462;1268;22909;-87
2023/11/28 16:30:58;;;;;;;54.90;22.00;;;;;;;-1.62;93.37;98675.95;111457;1268;22960;-87
2023/11/28 16:33:49;;;;;;;55.90;20.00;;;;;;;-1.62;93.37;98677.77;111481;1263;22081;-89
2023/11/28 16:36:40;;;;;;;45.90;18.00;;;;;;;-1.63;93.51;98682.62;111273;1265;22114;-88
2023/11/28 16:39:33;;;;;;;54.70;22.30;;;;;;;-1.63;93.38;98686.54;111704;1264;22325;-90
2023/11/28 16:42:42;;;;;;;50.70;20.40;;;;;;;-1.62;93.53;98691.82;111659;1266;23013;-87
2023/11/28 18:48:43;;;;;;;71.40;28.50;;;;;;;-1.99;94.12;98904.38;106466;1302;617346;-89
2023/11/28 18:53:20;;;;;;;79.20;34.40;;;;;;;-1.99;94.00;98913.83;107127;1302;543021;-88
2023/11/28 18:57:14;;;;;;;75.30;31.40;;;;;;;-2.04;94.02;98920.35;109643;1278;23869;-92
2023/11/28 19:01:29;;;;;;;78.90;35.10;;;;;;;-2.06;94.16;98935.61;109901;1270;22701;-90
2023/11/28 19:06:02;;;;;;;70.30;28.40;;;;;;;-2.09;94.12;98941.30;106253;1270;5272741;-90
2023/11/28 19:10:16;;;;;;;77.70;35.00;;;;;;;-2.11;94.18;98944.65;110479;1273;22608;-90
2023/11/28 19:14:30;;;;;;;81.80;35.20;;;;;;;-2.13;94.28;98949.55;110350;1275;22547;-91
2023/11/28 19:18:44;;;;;;;76.10;32.80;;;;;;;-2.16;94.20;98951.09;109780;1273;22649;-90
2023/11/28 19:22:39;;;;;;;75.00;31.10;;;;;;;-2.17;94.32;98953.92;109338;1268;24958;-89
2023/11/28 19:26:36;;;;;;;84.20;35.30;;;;;;;-2.18;94.29;98952.15;110249;1269;24232;-91
2023/11/28 19:29:29;;;;;;;81.30;34.30;;;;;;;-2.20;94.30;98953.60;109362;1270;22637;-85
2023/11/28 19:33:17;;;;;;;82.80;36.10;;;;;;;-2.21;94.26;98956.45;108899;1275;22552;-90
2023/11/28 19:36:32;;;;;;;75.60;31.60;;;;;;;-2.23;94.28;98964.52;109855;1271;22695;-91
2023/11/28 19:40:06;;;;;;;90.00;36.60;;;;;;;-2.24;94.25;98971.73;109787;1275;23122;-89
2023/11/28 19:43:45;;;;;;;77.50;33.50;;;;;;;-2.27;94.29;98981.25;109803;1276;25290;-88
2023/11/28 19:47:37;;;;;;;87.50;36.70;;;;;;;-2.29;94.23;98981.85;110274;1272;22567;-88
2023/11/28 19:52:11;;;;;;;91.10;35.70;;;;;;;-2.32;94.23;98990.41;110870;1267;22562;-92
2023/11/28 19:56:29;;;;;;;83.20;31.40;;;;;;;-2.34;94.22;98999.30;110197;1266;22556;-89
2023/11/28 20:00:44;;;;;;;73.40;28.30;;;;;;;-2.37;94.33;98998.81;110224;1270;22544;-91
2023/11/28 20:04:37;;;;;;;89.30;34.90;;;;;;;-2.40;94.44;99001.05;110067;1274;22614;-91
2023/11/28 20:09:05;;;;;;;93.30;36.10;;;;;;;-2.41;94.37;99006.84;110362;1267;23012;-89
2023/11/28 20:12:58;;;;;;;81.50;34.30;;;;;;;-2.44;94.37;99017.91;110176;1274;22882;-90
2023/11/28 20:17:14;;;;;;;83.50;33.50;;;;;;;-2.46;94.40;99024.37;110414;1274;22556;-90
2023/11/28 20:21:28;;;;;;;76.30;26.80;;;;;;;-2.51;94.21;99025.53;110047;1273;22595;-90
2023/11/28 20:25:39;;;;;;;72.80;25.10;;;;;;;-2.55;94.47;99029.06;110347;1264;22578;-90
2023/11/28 20:30:15;;;;;;;65.90;24.90;;;;;;;-2.59;94.15;99033.20;110368;1272;25715;-90
2023/11/28 20:34:27;;;;;;;62.80;22.90;;;;;;;-2.67;94.18;99034.29;110493;1272;22571;-90
2023/11/28 20:38:40;;;;;;;65.80;25.50;;;;;;;-2.71;94.33;99039.91;110350;1264;22783;-90
2023/11/28 20:42:34;;;;;;;76.50;31.50;;;;;;;-2.73;94.33;99049.77;109849;1265;22470;-89
2023/11/28 20:45:46;;;;;;;89.00;36.50;;;;;;;-2.72;94.42;99051.48;108306;1272;23325;-84
2023/11/28 20:48:57;;;;;;;76.60;31.80;;;;;;;-2.73;94.38;99057.43;110870;1265;22188;-83
2023/11/28 20:51:50;;;;;;;65.00;25.30;;;;;;;-2.74;94.43;99059.09;109796;1261;22707;-87
2023/11/28 20:55:43;;;;;;;65.90;24.30;;;;;;;-2.75;94.63;99059.97;109480;1265;26367;-88
2023/11/28 20:59:20;;;;;;;69.90;26.70;;;;;;;-2.79;94.83;99066.36;109121;1265;23962;-88
2023/11/28 23:05:18;;;;;;;53.90;21.00;;;;;;;-3.28;97.61;99210.67;107270;1308;545655;-90
2023/11/28 23:09:33;;;;;;;59.60;21.00;;;;;;;-3.31;97.42;99219.23;110004;1275;22711;-89
2023/11/28 23:13:06;;;;;;;59.90;21.50;;;;;;;-3.31;97.52;99223.14;110544;1276;22571;-88
